createdAt,value
2019-06-20T00:01:11.735Z,3.83
2019-06-20T00:03:40.462Z,2.37
2019-06-20T00:06:09.190Z,4.10
2019-06-20T00:08:37.930Z,6.20
2019-06-20T00:11:06.864Z,4.23
2019-06-20T00:13:36.089Z,2.43
2019-06-20T00:16:04.938Z,5.53
2019-06-20T00:18:34.619Z,2.87
2019-06-20T00:21:03.719Z,3.40
2019-06-20T00:23:32.514Z,2.73
2019-06-20T00:26:01.581Z,2.97
2019-06-20T00:28:30.495Z,3.10
2019-06-20T00:30:59.351Z,3.33
2019-06-20T00:33:28.804Z,3.40
2019-06-20T00:35:58.040Z,2.80
2019-06-20T00:38:26.863Z,3.33
2019-06-20T00:40:56.145Z,3.37
2019-06-20T00:43:25.320Z,3.30
2019-06-20T00:45:54.098Z,2.77
2019-06-20T00:48:23.326Z,3.53
2019-06-20T00:50:52.179Z,3.90
2019-06-20T00:53:21.718Z,3.53
2019-06-20T00:55:50.792Z,3.93
2019-06-20T00:58:19.769Z,3.87
2019-06-20T01:00:49.102Z,3.27
2019-06-20T01:03:18.406Z,5.87
2019-06-20T01:05:47.127Z,5.30
2019-06-20T01:08:15.878Z,4.93
2019-06-20T01:10:46.158Z,3.83
2019-06-20T01:13:14.988Z,5.40
2019-06-20T01:15:44.075Z,4.17
2019-06-20T01:18:13.422Z,4.60
2019-06-20T01:20:42.507Z,7.20
2019-06-20T01:23:11.235Z,7.30
2019-06-20T01:25:41.073Z,3.13
2019-06-20T01:28:10.363Z,7.40
2019-06-20T01:30:39.426Z,5.53
2019-06-20T01:33:08.510Z,4.27
2019-06-20T01:35:37.942Z,4.00
2019-06-20T01:38:06.653Z,5.43
2019-06-20T01:40:35.408Z,6.73
2019-06-20T01:43:05.909Z,5.70
2019-06-20T01:45:35.805Z,6.33
2019-06-20T01:48:04.770Z,7.50
2019-06-20T01:50:33.608Z,5.30
2019-06-20T01:53:02.914Z,5.87
2019-06-20T01:55:31.951Z,5.37
2019-06-20T01:58:00.994Z,4.90
2019-06-20T02:00:44.208Z,5.70
2019-06-20T02:03:13.551Z,4.67
2019-06-20T02:05:42.258Z,7.00
2019-06-20T02:08:11.475Z,9.67
2019-06-20T02:10:40.637Z,8.27
2019-06-20T02:13:09.352Z,6.73
2019-06-20T02:15:38.342Z,3.77
2019-06-20T02:18:07.098Z,7.70
2019-06-20T02:20:37.412Z,6.30
2019-06-20T02:23:06.839Z,7.17
2019-06-20T02:25:35.722Z,6.37
2019-06-20T02:28:05.138Z,4.50
2019-06-20T02:30:34.531Z,3.83
2019-06-20T02:33:03.475Z,6.80
2019-06-20T02:35:33.302Z,6.03
2019-06-20T02:38:02.288Z,8.47
2019-06-20T02:40:31.005Z,8.00
2019-06-20T02:43:00.573Z,14.57
2019-06-20T02:45:29.614Z,11.27
2019-06-20T02:47:58.442Z,11.47
2019-06-20T02:50:27.744Z,10.50
2019-06-20T02:52:56.899Z,10.40
2019-06-20T02:55:25.756Z,6.73
2019-06-20T02:57:54.658Z,6.20
2019-06-20T03:00:53.777Z,9.23
2019-06-20T03:03:22.826Z,7.10
2019-06-20T03:05:51.590Z,7.30
2019-06-20T03:08:20.305Z,5.80
2019-06-20T03:10:49.019Z,7.10
2019-06-20T03:13:17.745Z,6.37
2019-06-20T03:15:51.011Z,8.27
2019-06-20T03:18:19.935Z,8.13
2019-06-20T03:20:49.468Z,6.47
2019-06-20T03:23:19.455Z,6.97
2019-06-20T03:25:48.561Z,9.00
2019-06-20T03:28:17.909Z,8.07
2019-06-20T03:30:47.215Z,8.37
2019-06-20T03:33:16.143Z,6.60
2019-06-20T03:35:44.915Z,6.00
2019-06-20T03:38:13.699Z,5.50
2019-06-20T03:40:42.855Z,7.87
2019-06-20T03:43:12.006Z,5.60
2019-06-20T03:45:41.071Z,6.30
2019-06-20T03:48:10.022Z,7.97
2019-06-20T03:50:39.101Z,6.93
2019-06-20T03:53:08.346Z,6.37
2019-06-20T03:55:37.626Z,8.77
2019-06-20T03:58:06.603Z,8.13
2019-06-20T04:00:36.446Z,5.63
2019-06-20T04:03:06.258Z,5.20
2019-06-20T04:05:35.937Z,5.87
2019-06-20T04:08:04.699Z,8.63
2019-06-20T04:10:33.938Z,6.17
2019-06-20T04:13:02.878Z,6.37
2019-06-20T04:15:31.934Z,5.83
2019-06-20T04:18:00.980Z,5.30
2019-06-20T04:20:29.692Z,7.37
2019-06-20T04:22:58.539Z,5.57
2019-06-20T04:25:28.610Z,6.37
2019-06-20T04:27:57.666Z,5.90
2019-06-20T04:30:27.226Z,6.00
2019-06-20T04:32:55.931Z,7.50
2019-06-20T04:35:24.771Z,10.43
2019-06-20T04:37:54.035Z,6.33
2019-06-20T04:40:22.916Z,4.13
2019-06-20T04:42:51.618Z,7.27
2019-06-20T04:45:36.435Z,4.97
2019-06-20T04:48:05.140Z,5.00
2019-06-20T04:50:34.242Z,6.10
2019-06-20T04:53:04.685Z,5.80
2019-06-20T04:55:33.555Z,7.23
2019-06-20T04:58:02.262Z,6.20
2019-06-20T05:00:31.580Z,5.87
2019-06-20T05:03:00.359Z,6.33
2019-06-20T05:05:29.137Z,7.33
2019-06-20T05:07:57.866Z,7.13
2019-06-20T05:10:26.582Z,11.27
2019-06-20T05:12:56.166Z,5.17
2019-06-20T05:15:25.798Z,7.33
2019-06-20T05:17:54.505Z,7.70
2019-06-20T05:20:23.334Z,8.07
2019-06-20T05:22:52.647Z,7.80
2019-06-20T05:25:21.366Z,7.90
2019-06-20T05:27:50.311Z,8.00
2019-06-20T05:30:19.727Z,8.03
2019-06-20T05:32:48.445Z,8.10
2019-06-20T05:35:17.139Z,8.20
2019-06-20T05:37:45.982Z,6.60
2019-06-20T05:40:14.729Z,5.60
2019-06-20T05:42:43.461Z,7.90
2019-06-20T05:45:12.861Z,7.70
2019-06-20T05:47:41.635Z,7.10
2019-06-20T05:50:10.366Z,5.93
2019-06-20T05:52:39.104Z,8.77
2019-06-20T05:55:08.305Z,7.40
2019-06-20T05:57:37.091Z,7.17
2019-06-20T06:00:08.394Z,8.60
2019-06-20T06:02:37.680Z,5.23
2019-06-20T06:05:06.903Z,6.53
2019-06-20T06:07:35.749Z,6.03
2019-06-20T06:10:05.647Z,6.77
2019-06-20T06:12:34.542Z,7.90
2019-06-20T06:15:03.939Z,8.43
2019-06-20T06:17:32.661Z,8.20
2019-06-20T06:20:01.372Z,8.27
2019-06-20T06:22:30.823Z,10.23
2019-06-20T06:24:59.561Z,7.10
2019-06-20T06:27:28.276Z,8.70
2019-06-20T06:29:58.400Z,7.17
2019-06-20T06:32:39.543Z,7.37
2019-06-20T06:34:57.549Z,6.30
2019-06-20T06:37:26.610Z,6.23
2019-06-20T06:39:55.342Z,5.00
2019-06-20T06:42:24.116Z,5.73
2019-06-20T06:44:53.385Z,10.07
2019-06-20T06:47:22.099Z,6.40
2019-06-20T06:49:50.826Z,6.10
2019-06-20T06:52:19.952Z,8.23
2019-06-20T06:54:48.671Z,8.00
2019-06-20T06:57:17.383Z,9.50
2019-06-20T06:59:46.430Z,7.10
2019-06-20T07:02:15.202Z,9.57
2019-06-20T07:04:43.923Z,8.47
2019-06-20T07:07:12.697Z,7.23
2019-06-20T07:09:41.410Z,8.27
2019-06-20T07:12:10.263Z,10.37
2019-06-20T07:14:42.539Z,7.60
2019-06-20T07:17:10.019Z,8.20
2019-06-20T07:19:38.811Z,7.97
2019-06-20T07:22:08.162Z,8.77
2019-06-20T07:24:36.873Z,13.57
2019-06-20T07:27:05.594Z,5.77
2019-06-20T07:29:34.938Z,7.10
2019-06-20T07:32:04.095Z,6.27
2019-06-20T07:34:32.890Z,9.43
2019-06-20T07:37:02.076Z,7.43
2019-06-20T07:39:30.844Z,9.13
2019-06-20T07:41:59.570Z,9.87
2019-06-20T07:44:29.086Z,7.70
2019-06-20T07:46:57.785Z,9.83
2019-06-20T07:49:26.514Z,6.83
2019-06-20T07:51:56.479Z,9.33
2019-06-20T07:54:25.192Z,8.17
2019-06-20T07:56:53.915Z,7.83
2019-06-20T07:59:22.879Z,6.80
2019-06-20T08:01:51.673Z,8.80
2019-06-20T08:04:20.394Z,6.03
2019-06-20T08:06:49.190Z,5.73
2019-06-20T08:09:17.888Z,8.77
2019-06-20T08:11:46.603Z,6.60
2019-06-20T08:14:15.362Z,6.13
2019-06-20T08:16:44.335Z,6.67
2019-06-20T08:19:13.034Z,5.40
2019-06-20T08:21:44.202Z,7.67
2019-06-20T08:24:12.731Z,8.27
2019-06-20T08:26:41.423Z,5.63
2019-06-20T08:29:20.642Z,5.57
2019-06-20T08:31:40.683Z,5.27
2019-06-20T08:34:10.070Z,7.43
2019-06-20T08:36:39.374Z,16.63
2019-06-20T08:39:08.951Z,8.33
2019-06-20T08:41:37.667Z,8.27
2019-06-20T08:44:07.330Z,9.47
2019-06-20T08:46:36.251Z,10.80
2019-06-20T08:49:05.776Z,10.70
2019-06-20T08:51:34.724Z,14.40
2019-06-20T08:54:03.780Z,11.20
2019-06-20T08:56:32.562Z,9.93
2019-06-20T08:59:02.407Z,10.40
2019-06-20T09:01:31.335Z,8.90
2019-06-20T09:04:00.132Z,11.80
2019-06-20T09:06:28.948Z,8.53
2019-06-20T09:08:58.293Z,9.40
2019-06-20T09:11:27.035Z,9.13
2019-06-20T09:13:57.000Z,7.67
2019-06-20T09:16:25.955Z,8.13
2019-06-20T09:18:55.055Z,12.13
2019-06-20T09:21:25.744Z,9.77
2019-06-20T09:23:55.641Z,8.03
2019-06-20T09:26:24.542Z,8.47
2019-06-20T09:28:55.627Z,8.23
2019-06-20T09:31:24.427Z,8.00
2019-06-20T09:33:53.784Z,7.73
2019-06-20T09:36:23.971Z,9.27
2019-06-20T09:38:53.969Z,7.33
2019-06-20T09:41:23.122Z,8.73
2019-06-20T09:43:52.740Z,7.00
2019-06-20T09:46:21.590Z,7.07
2019-06-20T09:48:51.059Z,8.37
2019-06-20T09:51:21.031Z,10.73
2019-06-20T09:53:49.919Z,7.97
2019-06-20T09:56:18.745Z,7.27
2019-06-20T09:58:48.324Z,10.67
2019-06-20T10:01:17.944Z,8.80
2019-06-20T10:03:47.862Z,9.47
2019-06-20T10:06:17.196Z,9.57
2019-06-20T10:08:47.091Z,8.77
2019-06-20T10:11:16.413Z,8.60
2019-06-20T10:13:46.849Z,7.83
2019-06-20T10:16:15.562Z,7.97
2019-06-20T10:18:44.265Z,9.53
2019-06-20T10:21:13.524Z,10.23
2019-06-20T10:23:42.226Z,11.17
2019-06-20T10:26:10.958Z,11.53
2019-06-20T10:28:39.694Z,10.03
2019-06-20T10:31:08.414Z,10.80
2019-06-20T10:33:37.199Z,7.97
2019-06-20T10:36:05.947Z,8.53
2019-06-20T10:38:34.919Z,6.97
2019-06-20T10:41:03.696Z,8.87
2019-06-20T10:43:32.991Z,10.37
2019-06-20T10:46:01.719Z,8.13
2019-06-20T10:48:30.579Z,7.53
2019-06-20T10:51:18.944Z,9.77
2019-06-20T10:53:49.216Z,8.07
2019-06-20T10:56:18.068Z,6.40
2019-06-20T10:58:46.995Z,7.80
2019-06-20T11:01:15.816Z,7.90
2019-06-20T11:03:45.984Z,10.87
2019-06-20T11:06:15.331Z,7.93
2019-06-20T11:08:45.143Z,10.80
2019-06-20T11:11:13.858Z,6.73
2019-06-20T11:13:44.373Z,6.27
2019-06-20T11:16:13.569Z,7.90
2019-06-20T11:18:43.638Z,9.13
2019-06-20T11:21:12.763Z,6.67
2019-06-20T11:23:42.836Z,7.33
2019-06-20T11:26:12.798Z,5.37
2019-06-20T11:28:41.625Z,6.50
2019-06-20T11:31:10.524Z,9.83
2019-06-20T11:33:40.402Z,6.67
2019-06-20T11:36:09.606Z,6.43
2019-06-20T11:38:39.604Z,8.30
2019-06-20T11:41:08.771Z,6.63
2019-06-20T11:43:38.381Z,6.60
2019-06-20T11:46:07.771Z,7.90
2019-06-20T11:48:36.954Z,6.90
2019-06-20T11:51:06.222Z,6.10
2019-06-20T11:53:36.455Z,5.87
2019-06-20T11:56:05.689Z,6.57
2019-06-20T11:58:34.720Z,5.00
2019-06-20T12:01:04.289Z,5.23
2019-06-20T12:03:33.649Z,4.77
2019-06-20T12:06:02.659Z,5.47
2019-06-20T12:08:32.214Z,3.23
2019-06-20T12:11:01.211Z,2.90
2019-06-20T12:13:29.962Z,3.37
2019-06-20T12:15:58.958Z,2.53
2019-06-20T12:18:28.188Z,2.37
2019-06-20T12:20:57.286Z,2.17
2019-06-20T12:23:26.141Z,1.80
2019-06-20T12:25:55.180Z,3.37
2019-06-20T12:28:23.919Z,1.40
2019-06-20T12:30:52.812Z,2.33
2019-06-20T12:33:21.873Z,2.50
2019-06-20T12:35:50.903Z,2.33
2019-06-20T12:38:19.674Z,1.40
2019-06-20T12:40:48.404Z,1.20
2019-06-20T12:43:17.853Z,2.13
2019-06-20T12:45:47.486Z,3.63
2019-06-20T12:48:16.413Z,3.10
2019-06-20T12:50:47.576Z,1.93
2019-06-20T12:53:18.375Z,4.30
2019-06-20T12:55:47.588Z,7.20
2019-06-20T12:58:16.687Z,3.40
2019-06-20T13:00:46.551Z,2.90
2019-06-20T13:03:15.608Z,3.27
2019-06-20T13:05:44.901Z,3.23
2019-06-20T13:08:13.909Z,2.73
2019-06-20T13:10:46.077Z,2.73
2019-06-20T13:13:15.248Z,2.47
2019-06-20T13:15:44.580Z,3.00
2019-06-20T13:18:13.835Z,1.57
2019-06-20T13:20:44.253Z,3.73
2019-06-20T13:23:13.727Z,5.27
2019-06-20T13:25:42.663Z,3.87
2019-06-20T13:28:11.594Z,4.10
2019-06-20T13:30:41.672Z,3.77
2019-06-20T13:33:10.792Z,3.47
2019-06-20T13:35:40.507Z,2.57
2019-06-20T13:38:10.337Z,4.50
2019-06-20T13:40:40.255Z,3.63
2019-06-20T13:43:10.238Z,2.97
2019-06-20T13:45:40.606Z,2.87
2019-06-20T13:48:10.011Z,2.37
2019-06-20T13:50:40.033Z,1.60
2019-06-20T13:53:09.654Z,2.03
2019-06-20T13:55:39.427Z,6.37
2019-06-20T13:58:09.047Z,1.23
2019-06-20T14:00:37.774Z,1.17
2019-06-20T14:03:06.801Z,2.50
2019-06-20T14:05:36.166Z,1.33
2019-06-20T14:08:04.904Z,2.40
2019-06-20T14:10:34.093Z,3.07
2019-06-20T14:13:15.537Z,2.00
2019-06-20T14:15:34.025Z,1.60
2019-06-20T14:18:03.276Z,2.07
2019-06-20T14:20:32.084Z,4.50
2019-06-20T14:23:00.899Z,1.17
2019-06-20T14:25:30.242Z,3.00
2019-06-20T14:27:59.262Z,2.80
2019-06-20T14:30:30.269Z,2.70
2019-06-20T14:32:59.550Z,1.77
2019-06-20T14:35:28.283Z,1.70
2019-06-20T14:37:57.102Z,3.60
2019-06-20T14:40:25.807Z,2.53
2019-06-20T14:42:54.762Z,1.20
2019-06-20T14:45:24.068Z,4.20
2019-06-20T14:47:53.075Z,2.47
2019-06-20T14:50:21.907Z,1.90
2019-06-20T14:52:52.172Z,2.20
2019-06-20T14:55:21.357Z,1.40
2019-06-20T14:57:50.957Z,2.77
2019-06-20T15:00:22.691Z,2.93
2019-06-20T15:02:55.474Z,1.53
2019-06-20T15:05:22.186Z,2.27
2019-06-20T15:07:53.353Z,2.63
2019-06-20T15:10:21.644Z,2.37
2019-06-20T15:12:52.257Z,1.33
2019-06-20T15:15:21.986Z,2.50
2019-06-20T15:17:53.700Z,3.20
2019-06-20T15:20:21.918Z,4.83
2019-06-20T15:22:52.579Z,2.87
2019-06-20T15:25:22.048Z,3.83
2019-06-20T15:27:53.943Z,3.87
2019-06-20T15:30:22.688Z,2.30
2019-06-20T15:33:04.402Z,2.30
2019-06-20T15:35:22.790Z,2.33
2019-06-20T15:37:53.587Z,2.70
2019-06-20T15:40:22.090Z,2.60
2019-06-20T15:42:53.125Z,3.87
2019-06-20T15:45:22.198Z,2.17
2019-06-20T15:47:51.417Z,2.97
2019-06-20T15:50:20.576Z,2.80
2019-06-20T15:52:49.432Z,3.77
2019-06-20T15:55:20.535Z,6.37
2019-06-20T15:57:49.300Z,3.10
2019-06-20T16:00:18.132Z,7.10
2019-06-20T16:02:46.915Z,50.60
2019-06-20T16:05:15.651Z,87.20
2019-06-20T16:07:44.377Z,86.07
2019-06-20T16:10:13.104Z,41.50
2019-06-20T16:12:41.952Z,32.60
2019-06-20T16:15:10.772Z,18.13
2019-06-20T16:17:39.548Z,11.27
2019-06-20T16:20:09.738Z,10.37
2019-06-20T16:22:38.791Z,6.93
2019-06-20T16:25:07.593Z,7.83
2019-06-20T16:27:36.450Z,3.30
2019-06-20T16:30:05.793Z,5.23
2019-06-20T16:32:34.685Z,5.47
2019-06-20T16:35:04.301Z,4.93
2019-06-20T16:37:33.154Z,3.00
2019-06-20T16:40:01.901Z,4.30
2019-06-20T16:42:30.975Z,4.27
2019-06-20T16:44:59.910Z,3.83
2019-06-20T16:47:28.796Z,6.20
2019-06-20T16:49:57.638Z,3.13
2019-06-20T16:52:26.960Z,6.87
2019-06-20T16:54:55.669Z,2.47
2019-06-20T16:57:24.718Z,3.00
2019-06-20T16:59:53.744Z,5.33
2019-06-20T17:02:22.990Z,4.57
2019-06-20T17:04:51.890Z,2.63
2019-06-20T17:07:20.807Z,4.73
2019-06-20T17:09:49.896Z,5.40
2019-06-20T17:12:18.684Z,3.87
2019-06-20T17:14:47.408Z,5.70
2019-06-20T17:17:16.630Z,2.97
2019-06-20T17:19:46.244Z,4.57
2019-06-20T17:22:15.121Z,4.50
2019-06-20T17:24:44.513Z,3.47
2019-06-20T17:27:13.527Z,6.47
2019-06-20T17:29:42.486Z,7.40
2019-06-20T17:32:11.483Z,4.80
2019-06-20T17:34:40.594Z,4.90
2019-06-20T17:37:09.433Z,8.30
2019-06-20T17:39:38.220Z,4.17
2019-06-20T17:42:07.011Z,7.13
2019-06-20T17:44:36.003Z,5.20
2019-06-20T17:47:05.242Z,5.40
2019-06-20T17:49:34.228Z,5.13
2019-06-20T17:52:03.279Z,6.47
2019-06-20T17:54:32.571Z,8.53
2019-06-20T17:57:01.459Z,5.37
2019-06-20T17:59:30.474Z,8.73
2019-06-20T18:01:59.253Z,7.23
2019-06-20T18:04:28.201Z,10.13
2019-06-20T18:06:57.222Z,8.73
2019-06-20T18:09:26.489Z,7.20
2019-06-20T18:11:55.547Z,8.73
2019-06-20T18:14:24.319Z,9.00
2019-06-20T18:16:53.543Z,6.27
2019-06-20T18:19:22.305Z,5.70
2019-06-20T18:21:51.660Z,12.37
2019-06-20T18:24:20.519Z,5.37
2019-06-20T18:26:49.268Z,8.00
